createdAt,value
2022-10-26T00:00:23.697Z,10.37
2022-10-26T00:04:26.660Z,10.33
2022-10-26T00:08:31.061Z,10.29
2022-10-26T00:12:34.092Z,10.27
2022-10-26T00:16:37.131Z,10.23
2022-10-26T00:20:40.133Z,10.20
2022-10-26T00:24:44.500Z,10.17
2022-10-26T00:28:48.944Z,10.14
2022-10-26T00:32:52.803Z,10.08
2022-10-26T00:36:55.907Z,10.05
2022-10-26T00:41:00.382Z,10.01
2022-10-26T00:45:08.816Z,9.97
2022-10-26T00:49:16.808Z,9.93
2022-10-26T00:53:20.767Z,9.87
2022-10-26T00:57:25.785Z,9.81
2022-10-26T01:01:29.007Z,9.73
2022-10-26T01:05:32.935Z,9.68
2022-10-26T01:09:37.290Z,9.62
2022-10-26T01:13:45.227Z,9.58
2022-10-26T01:17:57.731Z,9.56
2022-10-26T01:22:04.527Z,9.54
2022-10-26T01:26:33.376Z,9.55
2022-10-26T01:30:41.899Z,9.53
2022-10-26T01:34:48.520Z,9.52
2022-10-26T01:38:59.096Z,9.50
2022-10-26T01:43:08.121Z,9.46
2022-10-26T01:47:15.321Z,9.42
2022-10-26T01:51:19.806Z,9.38
2022-10-26T01:55:44.483Z,9.33
2022-10-26T02:00:05.309Z,9.30
2022-10-26T02:04:20.474Z,9.29
2022-10-26T02:08:37.535Z,9.24
2022-10-26T02:12:46.899Z,9.18
2022-10-26T02:16:56.251Z,9.11
2022-10-26T02:21:06.634Z,9.08
2022-10-26T02:25:15.349Z,9.06
2022-10-26T02:29:20.534Z,9.03
2022-10-26T02:33:25.329Z,9.00
2022-10-26T02:37:33.343Z,8.99
2022-10-26T02:41:37.963Z,9.00
2022-10-26T02:45:45.496Z,9.00
2022-10-26T02:49:48.886Z,9.00
2022-10-26T02:53:57.570Z,9.00
2022-10-26T02:58:03.199Z,8.99
2022-10-26T03:02:06.853Z,8.96
2022-10-26T03:06:09.871Z,8.92
2022-10-26T03:10:14.380Z,8.88
2022-10-26T03:14:17.462Z,8.85
2022-10-26T03:18:20.909Z,8.82
2022-10-26T03:22:24.346Z,8.81
2022-10-26T03:26:28.827Z,8.81
2022-10-26T03:30:32.761Z,8.79
2022-10-26T03:34:35.769Z,8.78
2022-10-26T03:38:38.815Z,8.78
2022-10-26T03:42:43.469Z,8.72
2022-10-26T03:46:46.776Z,8.69
2022-10-26T03:50:49.804Z,8.68
2022-10-26T03:54:53.363Z,8.66
2022-10-26T03:58:57.757Z,8.67
2022-10-26T04:03:01.580Z,8.67
2022-10-26T04:07:04.763Z,8.64
2022-10-26T04:11:08.017Z,8.63
2022-10-26T04:15:12.693Z,8.60
2022-10-26T04:19:15.710Z,8.60
2022-10-26T04:23:20.175Z,8.59
2022-10-26T04:27:23.443Z,8.60
2022-10-26T04:31:27.861Z,8.56
2022-10-26T04:35:31.024Z,8.54
2022-10-26T04:39:34.038Z,8.47
2022-10-26T04:43:37.010Z,8.58
2022-10-26T04:47:42.023Z,8.55
2022-10-26T04:51:44.950Z,8.50
2022-10-26T04:55:47.843Z,8.45
2022-10-26T04:59:50.762Z,8.42
2022-10-26T05:03:55.057Z,8.39
2022-10-26T05:07:58.331Z,8.39
2022-10-26T05:12:01.241Z,8.41
2022-10-26T05:16:04.284Z,8.45
2022-10-26T05:20:13.249Z,8.47
2022-10-26T05:24:16.163Z,8.48
2022-10-26T05:28:19.854Z,8.50
2022-10-26T05:32:22.784Z,8.49
2022-10-26T05:36:27.131Z,8.47
2022-10-26T05:40:30.058Z,8.48
2022-10-26T05:44:33.196Z,8.52
2022-10-26T05:48:36.163Z,8.55
2022-10-26T05:52:45.158Z,8.60
2022-10-26T05:56:48.694Z,8.61
2022-10-26T06:01:03.439Z,8.63
2022-10-26T06:05:07.560Z,8.65
2022-10-26T06:09:13.212Z,8.70
2022-10-26T06:13:17.167Z,8.74
2022-10-26T06:17:36.468Z,8.78
2022-10-26T06:21:54.378Z,8.85
2022-10-26T06:26:07.353Z,8.91
2022-10-26T06:30:12.174Z,8.99
2022-10-26T06:34:24.039Z,9.00
2022-10-26T06:38:31.368Z,9.04
2022-10-26T06:42:36.230Z,9.11
2022-10-26T06:46:44.776Z,9.16
2022-10-26T06:50:52.680Z,9.22
2022-10-26T06:54:56.926Z,9.29
2022-10-26T06:59:09.694Z,9.33
2022-10-26T07:03:12.731Z,9.36
2022-10-26T07:07:19.127Z,9.39
2022-10-26T07:11:22.021Z,9.43
2022-10-26T07:15:26.403Z,9.50
2022-10-26T07:19:29.373Z,9.57
2022-10-26T07:23:32.314Z,9.66
2022-10-26T07:27:35.406Z,9.71
2022-10-26T07:31:39.753Z,9.73
2022-10-26T07:35:43.097Z,9.78
2022-10-26T07:39:45.992Z,9.83
2022-10-26T07:43:50.820Z,9.87
2022-10-26T07:47:55.246Z,9.93
2022-10-26T07:51:58.198Z,9.99
2022-10-26T07:56:01.389Z,10.07
2022-10-26T08:00:07.505Z,10.14
2022-10-26T08:04:12.744Z,10.20
2022-10-26T08:08:15.712Z,10.23
2022-10-26T08:12:18.989Z,10.29
2022-10-26T08:16:22.703Z,10.43
2022-10-26T08:20:27.089Z,10.61
2022-10-26T08:24:30.554Z,10.67
2022-10-26T08:28:33.503Z,10.69
2022-10-26T08:32:36.402Z,10.70
2022-10-26T08:36:40.889Z,10.71
2022-10-26T08:40:44.801Z,10.72
2022-10-26T08:44:50.031Z,10.75
2022-10-26T08:48:56.679Z,10.78
2022-10-26T08:53:05.756Z,10.81
2022-10-26T08:57:17.248Z,10.87
2022-10-26T09:01:20.386Z,10.90
2022-10-26T09:05:29.664Z,10.92
2022-10-26T09:09:49.546Z,10.95
2022-10-26T09:14:04.815Z,10.98
2022-10-26T09:18:23.020Z,11.04
2022-10-26T09:22:37.346Z,11.03
2022-10-26T09:26:54.545Z,11.04
2022-10-26T09:31:00.547Z,11.07
2022-10-26T09:35:07.403Z,11.12
2022-10-26T09:39:16.697Z,11.14
2022-10-26T09:43:25.867Z,11.16
2022-10-26T09:47:34.747Z,11.21
2022-10-26T09:51:40.128Z,11.25
2022-10-26T09:55:46.505Z,11.28
2022-10-26T09:59:52.605Z,11.31
2022-10-26T10:04:11.002Z,11.34
2022-10-26T10:08:19.725Z,11.39
2022-10-26T10:12:22.673Z,11.42
2022-10-26T10:16:27.402Z,11.45
2022-10-26T10:20:33.549Z,11.49
2022-10-26T10:24:38.334Z,11.53
2022-10-26T10:28:42.631Z,11.52
2022-10-26T10:32:46.928Z,11.54
2022-10-26T10:36:51.195Z,11.59
2022-10-26T10:40:57.647Z,11.60
2022-10-26T10:45:01.688Z,11.61
2022-10-26T10:49:08.159Z,11.60
2022-10-26T10:53:16.754Z,11.60
2022-10-26T10:57:31.123Z,11.60
2022-10-26T11:01:40.760Z,11.62
2022-10-26T11:05:58.973Z,11.69
2022-10-26T11:10:04.916Z,11.77
2022-10-26T11:14:14.447Z,11.82
2022-10-26T11:18:23.118Z,11.87
2022-10-26T11:22:31.769Z,11.92
2022-10-26T11:26:43.613Z,11.98
2022-10-26T11:30:56.498Z,12.01
2022-10-26T11:35:05.918Z,12.02
2022-10-26T11:39:17.446Z,12.06
2022-10-26T11:43:30.863Z,12.13
2022-10-26T11:47:41.623Z,12.19
2022-10-26T11:51:50.011Z,12.23
2022-10-26T11:55:56.495Z,12.19
2022-10-26T12:00:02.722Z,12.20
2022-10-26T12:04:08.201Z,12.20
2022-10-26T12:08:17.482Z,12.20
2022-10-26T12:12:30.713Z,12.21
2022-10-26T12:16:47.903Z,12.24
2022-10-26T12:21:02.414Z,12.27
2022-10-26T12:25:19.799Z,12.36
2022-10-26T12:29:38.459Z,12.41
2022-10-26T12:33:51.405Z,12.42
2022-10-26T12:37:54.424Z,12.45
2022-10-26T12:41:59.672Z,12.48
2022-10-26T12:46:41.076Z,12.52
2022-10-26T12:50:45.590Z,12.53
2022-10-26T12:55:04.477Z,12.56
2022-10-26T12:59:23.237Z,12.58
2022-10-26T13:03:35.624Z,12.62
2022-10-26T13:07:41.542Z,12.59
2022-10-26T13:11:48.067Z,12.59
2022-10-26T13:15:55.136Z,12.57
2022-10-26T13:20:00.242Z,12.58
2022-10-26T13:24:07.884Z,12.59
2022-10-26T13:28:32.677Z,12.58
2022-10-26T13:32:38.040Z,12.58
2022-10-26T13:36:46.413Z,12.59
2022-10-26T13:40:51.305Z,12.62
2022-10-26T13:44:57.028Z,12.64
2022-10-26T13:49:06.890Z,12.65
2022-10-26T13:53:17.756Z,12.66
2022-10-26T13:57:29.093Z,12.66
2022-10-26T14:01:32.745Z,12.64
2022-10-26T14:05:36.069Z,12.63
2022-10-26T14:09:38.974Z,12.64
2022-10-26T14:13:44.158Z,12.62
2022-10-26T14:17:52.096Z,12.60
2022-10-26T14:21:56.607Z,12.57
2022-10-26T14:25:59.844Z,12.58
2022-10-26T14:30:23.616Z,12.59
2022-10-26T14:34:26.712Z,12.58
2022-10-26T14:38:34.562Z,12.57
2022-10-26T14:42:41.485Z,12.56
2022-10-26T14:46:46.494Z,12.57
2022-10-26T14:50:59.761Z,12.57
2022-10-26T14:55:05.776Z,12.58
2022-10-26T14:59:14.077Z,12.62
2022-10-26T15:03:19.321Z,12.63
2022-10-26T15:07:22.215Z,12.64
2022-10-26T15:11:25.914Z,12.65
2022-10-26T15:15:28.857Z,12.62
2022-10-26T15:19:34.124Z,12.59
2022-10-26T15:23:43.298Z,12.54
2022-10-26T15:27:46.598Z,12.50
2022-10-26T15:32:01.319Z,12.48
2022-10-26T15:36:15.539Z,12.45
2022-10-26T15:40:19.543Z,12.43
2022-10-26T15:44:23.379Z,12.38
2022-10-26T15:48:29.205Z,12.37
2022-10-26T15:52:33.778Z,12.36
2022-10-26T15:56:37.482Z,12.37
2022-10-26T16:00:40.420Z,12.35
2022-10-26T16:04:43.425Z,12.32
2022-10-26T16:08:52.510Z,12.29
2022-10-26T16:12:55.924Z,12.35
2022-10-26T16:16:58.885Z,12.45
2022-10-26T16:21:01.880Z,12.46
2022-10-26T16:25:07.159Z,12.49
2022-10-26T16:29:10.195Z,12.49
2022-10-26T16:33:13.230Z,12.48
2022-10-26T16:37:16.245Z,12.45
2022-10-26T16:41:20.802Z,12.45
2022-10-26T16:45:24.325Z,12.45
2022-10-26T16:49:27.357Z,12.44
2022-10-26T16:53:30.330Z,12.45
2022-10-26T16:57:36.112Z,12.43
2022-10-26T17:01:39.241Z,12.41
2022-10-26T17:05:42.324Z,12.40
2022-10-26T17:09:45.602Z,12.43
2022-10-26T17:13:54.646Z,12.44
2022-10-26T17:17:57.804Z,12.39
2022-10-26T17:22:03.729Z,12.38
2022-10-26T17:26:11.967Z,12.35
2022-10-26T17:30:17.000Z,12.34
2022-10-26T17:34:20.260Z,12.31
2022-10-26T17:38:23.334Z,12.31
2022-10-26T17:42:26.343Z,12.35
2022-10-26T17:46:30.838Z,12.33
2022-10-26T17:50:33.856Z,12.30
2022-10-26T17:54:36.876Z,12.25
2022-10-26T17:58:40.150Z,12.22
2022-10-26T18:02:44.654Z,12.23
2022-10-26T18:06:47.797Z,12.25
2022-10-26T18:10:51.748Z,12.26
2022-10-26T18:14:54.759Z,12.25
2022-10-26T18:19:01.060Z,12.29
2022-10-26T18:23:05.376Z,12.30
2022-10-26T18:27:08.600Z,12.32
2022-10-26T18:31:13.540Z,12.34
2022-10-26T18:35:19.513Z,12.36
2022-10-26T18:39:22.581Z,12.37
2022-10-26T18:43:25.641Z,12.39
2022-10-26T18:47:30.023Z,12.38
2022-10-26T18:51:35.903Z,12.37
2022-10-26T18:55:39.276Z,12.33
2022-10-26T18:59:42.363Z,12.31
2022-10-26T19:03:46.275Z,12.30
2022-10-26T19:07:50.991Z,12.27
2022-10-26T19:11:54.023Z,12.25
2022-10-26T19:16:05.210Z,12.22
2022-10-26T19:20:12.837Z,12.23
2022-10-26T19:24:18.853Z,12.24
2022-10-26T19:28:21.934Z,12.24
2022-10-26T19:32:28.062Z,12.20
2022-10-26T19:36:31.797Z,12.20
2022-10-26T19:40:36.380Z,12.19
2022-10-26T19:44:39.827Z,12.19
2022-10-26T19:48:48.681Z,12.13
2022-10-26T19:52:52.111Z,12.12
2022-10-26T19:56:56.858Z,12.06
2022-10-26T20:01:01.336Z,12.06
2022-10-26T20:05:04.701Z,12.04
2022-10-26T20:09:07.832Z,12.00
2022-10-26T20:13:14.733Z,11.97
2022-10-26T20:17:18.145Z,11.96
2022-10-26T20:21:21.485Z,11.96
2022-10-26T20:25:24.886Z,11.98
2022-10-26T20:29:29.915Z,11.94
2022-10-26T20:33:32.952Z,11.95
2022-10-26T20:37:36.602Z,11.95
2022-10-26T20:41:43.392Z,11.95
2022-10-26T20:45:48.610Z,11.93
2022-10-26T20:49:52.579Z,11.96
2022-10-26T20:54:05.009Z,11.97
2022-10-26T20:58:13.569Z,11.97
2022-10-26T21:02:18.028Z,11.96
2022-10-26T21:06:21.147Z,11.96
2022-10-26T21:10:24.238Z,11.96
2022-10-26T21:14:28.182Z,11.97
2022-10-26T21:18:32.646Z,11.96
2022-10-26T21:22:44.421Z,11.94
2022-10-26T21:26:47.415Z,11.92
2022-10-26T21:30:50.681Z,11.92
2022-10-26T21:34:55.251Z,11.90
2022-10-26T21:38:58.418Z,11.89
2022-10-26T21:43:01.698Z,11.90
2022-10-26T21:47:05.203Z,11.89
2022-10-26T21:51:12.435Z,11.88
2022-10-26T21:55:15.494Z,11.85
2022-10-26T21:59:18.490Z,11.84
2022-10-26T22:03:21.584Z,11.81
2022-10-26T22:07:26.200Z,11.75
2022-10-26T22:11:29.252Z,11.73
2022-10-26T22:15:32.243Z,11.69
2022-10-26T22:19:35.299Z,11.66
2022-10-26T22:23:41.840Z,11.63
2022-10-26T22:27:45.075Z,11.60
2022-10-26T22:31:48.240Z,11.56
2022-10-26T22:35:51.230Z,11.54
2022-10-26T22:39:55.671Z,11.50
2022-10-26T22:43:58.695Z,11.46
2022-10-26T22:48:01.738Z,11.40
2022-10-26T22:52:04.940Z,11.34
2022-10-26T22:56:11.811Z,11.31
2022-10-26T23:00:16.073Z,11.27
2022-10-26T23:04:19.085Z,11.22
2022-10-26T23:08:22.096Z,11.16
2022-10-26T23:12:26.648Z,11.12
2022-10-26T23:16:30.819Z,11.07
2022-10-26T23:20:34.567Z,10.99
2022-10-26T23:24:37.593Z,10.96
2022-10-26T23:28:43.288Z,10.93
2022-10-26T23:32:46.494Z,10.91
2022-10-26T23:36:50.596Z,10.88
2022-10-26T23:40:55.483Z,10.88
2022-10-26T23:44:59.949Z,10.87
2022-10-26T23:49:03.208Z,10.85
2022-10-26T23:53:06.199Z,10.86
2022-10-26T23:57:09.160Z,10.84
